createdAt,value
2017-11-26T00:00:43.731Z,3.50
2017-11-26T00:03:12.095Z,3.50
2017-11-26T00:05:40.474Z,3.40
2017-11-26T00:08:08.852Z,3.40
2017-11-26T00:10:37.218Z,3.40
2017-11-26T00:13:05.601Z,3.40
2017-11-26T00:15:34.008Z,3.40
2017-11-26T00:18:02.588Z,3.30
2017-11-26T00:20:30.957Z,3.30
2017-11-26T00:22:59.326Z,3.30
2017-11-26T00:25:27.771Z,3.30
2017-11-26T00:27:56.142Z,3.30
2017-11-26T00:30:24.691Z,3.30
2017-11-26T00:32:53.175Z,3.30
2017-11-26T00:35:21.560Z,3.30
2017-11-26T00:37:50.747Z,3.20
2017-11-26T00:40:19.170Z,3.20
2017-11-26T00:42:47.632Z,3.30
2017-11-26T00:45:16.094Z,3.30
2017-11-26T00:47:44.494Z,3.20
2017-11-26T00:50:12.875Z,3.20
2017-11-26T00:52:42.028Z,3.10
2017-11-26T00:55:10.387Z,3.10
2017-11-26T00:57:38.795Z,3.10
2017-11-26T01:00:07.171Z,3.10
2017-11-26T01:02:35.738Z,3.10
2017-11-26T01:05:04.141Z,3.00
2017-11-26T01:07:32.511Z,3.00
2017-11-26T01:10:00.903Z,3.00
2017-11-26T01:12:29.473Z,3.00
2017-11-26T01:14:57.863Z,3.00
2017-11-26T01:17:26.235Z,3.00
2017-11-26T01:19:54.606Z,3.00
2017-11-26T01:22:28.885Z,3.00
2017-11-26T01:24:58.029Z,3.00
2017-11-26T01:27:26.398Z,3.00
2017-11-26T01:29:55.370Z,3.00
2017-11-26T01:32:23.765Z,3.00
2017-11-26T01:34:52.130Z,3.10
2017-11-26T01:37:20.509Z,3.10
2017-11-26T01:39:48.879Z,3.10
2017-11-26T01:42:17.355Z,3.10
2017-11-26T01:44:45.728Z,3.20
2017-11-26T01:47:14.865Z,3.20
2017-11-26T01:49:43.263Z,3.10
2017-11-26T01:52:11.631Z,3.20
2017-11-26T01:54:40.002Z,3.20
2017-11-26T01:57:08.374Z,3.20
2017-11-26T01:59:36.738Z,3.20
2017-11-26T02:02:05.132Z,3.20
2017-11-26T02:04:33.551Z,3.20
2017-11-26T02:07:01.949Z,3.30
2017-11-26T02:09:30.291Z,3.30
2017-11-26T02:11:58.669Z,3.30
2017-11-26T02:14:27.039Z,3.30
2017-11-26T02:16:55.442Z,3.30
2017-11-26T02:19:23.805Z,3.30
2017-11-26T02:21:52.181Z,3.30
2017-11-26T02:24:20.563Z,3.30
2017-11-26T02:26:48.933Z,3.30
2017-11-26T02:29:17.309Z,3.30
2017-11-26T02:31:57.541Z,3.30
2017-11-26T02:37:26.997Z,3.30
2017-11-26T02:39:55.350Z,3.20
2017-11-26T02:42:23.785Z,3.20
2017-11-26T02:44:52.232Z,3.30
2017-11-26T02:47:20.593Z,3.30
2017-11-26T02:49:48.921Z,3.30
2017-11-26T02:52:17.260Z,3.30
2017-11-26T02:54:45.688Z,3.30
2017-11-26T02:57:14.142Z,3.30
2017-11-26T02:59:42.502Z,3.40
2017-11-26T03:02:10.849Z,3.40
2017-11-26T03:04:39.981Z,3.40
2017-11-26T03:07:08.466Z,3.40
2017-11-26T03:09:36.805Z,3.40
2017-11-26T03:12:05.905Z,3.50
2017-11-26T03:14:34.257Z,3.50
2017-11-26T03:17:02.594Z,3.50
2017-11-26T03:19:30.975Z,3.50
2017-11-26T03:21:59.333Z,3.50
2017-11-26T03:24:27.713Z,3.60
2017-11-26T03:26:56.074Z,3.60
2017-11-26T03:29:25.271Z,3.70
2017-11-26T03:31:54.427Z,3.70
2017-11-26T03:34:22.785Z,3.70
2017-11-26T03:36:51.192Z,3.80
2017-11-26T03:39:19.577Z,3.70
2017-11-26T03:41:47.965Z,3.70
2017-11-26T03:44:16.373Z,3.70
2017-11-26T03:46:44.867Z,3.70
2017-11-26T03:49:13.375Z,3.70
2017-11-26T03:51:41.839Z,3.70
2017-11-26T03:54:10.237Z,3.80
2017-11-26T03:56:38.659Z,3.80
2017-11-26T03:59:07.054Z,3.90
2017-11-26T04:01:35.436Z,3.90
2017-11-26T04:04:04.591Z,3.90
2017-11-26T04:06:33.048Z,3.90
2017-11-26T04:09:01.419Z,4.00
2017-11-26T04:11:29.820Z,4.00
2017-11-26T04:13:58.254Z,4.00
2017-11-26T04:16:26.630Z,3.90
2017-11-26T04:18:55.751Z,3.90
2017-11-26T04:21:24.116Z,3.90
2017-11-26T04:23:52.474Z,3.80
2017-11-26T04:26:20.837Z,3.80
2017-11-26T04:28:49.178Z,3.80
2017-11-26T04:31:17.733Z,3.80
2017-11-26T04:33:46.157Z,3.80
2017-11-26T04:36:14.538Z,3.80
2017-11-26T04:38:42.933Z,3.80
2017-11-26T04:41:11.290Z,3.80
2017-11-26T04:43:39.641Z,3.80
2017-11-26T04:46:08.001Z,3.90
2017-11-26T04:48:37.319Z,4.00
2017-11-26T04:51:05.683Z,4.00
2017-11-26T04:53:34.819Z,4.10
2017-11-26T04:56:03.180Z,4.10
2017-11-26T04:58:31.553Z,4.10
2017-11-26T05:00:59.984Z,4.10
2017-11-26T05:03:28.311Z,4.20
2017-11-26T05:05:56.699Z,4.20
2017-11-26T05:08:25.104Z,4.20
2017-11-26T05:10:53.481Z,4.20
2017-11-26T05:13:21.906Z,4.20
2017-11-26T05:15:51.022Z,4.30
2017-11-26T05:18:19.383Z,4.20
2017-11-26T05:20:48.548Z,4.30
2017-11-26T05:23:16.929Z,4.30
2017-11-26T05:25:45.311Z,4.30
2017-11-26T05:28:13.701Z,4.30
2017-11-26T05:30:42.173Z,4.30
2017-11-26T05:33:10.589Z,4.30
2017-11-26T05:35:38.960Z,4.30
2017-11-26T05:38:08.672Z,4.40
2017-11-26T05:40:37.020Z,4.40
2017-11-26T05:43:05.366Z,4.40
2017-11-26T05:45:33.730Z,4.40
2017-11-26T05:48:02.107Z,4.30
2017-11-26T05:50:30.504Z,4.30
2017-11-26T05:52:58.855Z,4.30
2017-11-26T05:55:27.979Z,4.40
2017-11-26T05:57:56.333Z,4.40
2017-11-26T06:00:24.674Z,4.40
2017-11-26T06:02:53.036Z,4.40
2017-11-26T06:05:21.360Z,4.40
2017-11-26T06:07:49.705Z,4.40
2017-11-26T06:10:18.062Z,4.40
2017-11-26T06:12:46.426Z,4.40
2017-11-26T06:15:14.764Z,4.30
2017-11-26T06:17:43.889Z,4.40
2017-11-26T06:20:12.237Z,4.40
2017-11-26T06:22:41.466Z,4.40
2017-11-26T06:25:09.810Z,4.40
2017-11-26T06:27:38.912Z,4.40
2017-11-26T06:30:07.268Z,4.40
2017-11-26T06:32:35.630Z,4.30
2017-11-26T06:35:03.956Z,4.30
2017-11-26T06:37:33.191Z,4.20
2017-11-26T06:40:01.575Z,4.10
2017-11-26T06:42:29.928Z,4.20
2017-11-26T06:44:58.269Z,4.20
2017-11-26T06:47:26.785Z,4.30
2017-11-26T06:49:55.877Z,4.30
2017-11-26T06:52:24.373Z,4.20
2017-11-26T06:54:52.726Z,4.30
2017-11-26T06:57:21.836Z,4.20
2017-11-26T06:59:50.174Z,4.20
2017-11-26T07:02:18.540Z,4.10
2017-11-26T07:04:46.869Z,4.10
2017-11-26T07:07:15.213Z,4.10
2017-11-26T07:09:43.545Z,4.20
2017-11-26T07:12:11.898Z,4.20
2017-11-26T07:14:41.018Z,4.30
2017-11-26T07:17:09.370Z,4.20
2017-11-26T07:19:38.494Z,4.30
2017-11-26T07:22:06.868Z,4.30
2017-11-26T07:24:35.216Z,4.40
2017-11-26T07:27:03.642Z,4.40
2017-11-26T07:29:32.066Z,4.40
2017-11-26T07:32:00.388Z,4.40
2017-11-26T07:34:28.735Z,4.50
2017-11-26T07:36:57.829Z,4.50
2017-11-26T07:39:26.941Z,4.50
2017-11-26T07:41:56.042Z,4.50
2017-11-26T07:44:24.397Z,4.50
2017-11-26T07:46:53.522Z,4.60
2017-11-26T07:49:22.014Z,4.60
2017-11-26T07:51:50.381Z,4.60
2017-11-26T07:54:18.712Z,4.60
2017-11-26T07:56:47.080Z,4.60
2017-11-26T07:59:15.435Z,4.70
2017-11-26T08:01:43.784Z,4.60
2017-11-26T08:04:13.036Z,4.70
2017-11-26T08:06:41.381Z,4.70
2017-11-26T08:09:09.734Z,4.80
2017-11-26T08:11:38.957Z,4.90
2017-11-26T08:14:07.389Z,4.80
2017-11-26T08:16:35.836Z,4.40
2017-11-26T08:19:04.187Z,4.90
2017-11-26T08:21:32.584Z,4.90
2017-11-26T08:24:00.928Z,4.90
2017-11-26T08:26:30.034Z,5.00
2017-11-26T08:28:59.138Z,5.00
2017-11-26T08:31:27.492Z,5.00
2017-11-26T08:33:55.978Z,5.00
2017-11-26T08:36:24.360Z,5.10
2017-11-26T08:38:53.453Z,5.10
2017-11-26T08:41:22.668Z,5.00
2017-11-26T08:43:51.781Z,5.10
2017-11-26T08:46:20.113Z,5.00
2017-11-26T08:48:48.797Z,5.10
2017-11-26T08:51:17.194Z,5.10
2017-11-26T08:53:46.298Z,5.20
2017-11-26T08:56:15.399Z,5.10
2017-11-26T08:58:44.512Z,5.10
2017-11-26T09:01:12.848Z,5.10
2017-11-26T09:03:41.187Z,5.10
2017-11-26T09:06:09.569Z,5.10
2017-11-26T09:08:52.629Z,5.10
2017-11-26T09:11:21.108Z,5.00
2017-11-26T09:13:49.541Z,5.00
2017-11-26T09:16:17.897Z,5.00
2017-11-26T09:18:46.228Z,5.00
2017-11-26T09:21:14.559Z,5.00
2017-11-26T09:23:42.935Z,5.00
2017-11-26T09:26:11.273Z,5.10
2017-11-26T09:28:39.968Z,5.10
2017-11-26T09:31:08.305Z,5.10
2017-11-26T09:33:36.660Z,5.20
2017-11-26T09:36:04.976Z,5.20
2017-11-26T09:38:33.309Z,5.30
2017-11-26T09:41:02.417Z,5.40
2017-11-26T09:43:31.106Z,5.40
2017-11-26T09:45:59.557Z,5.40
2017-11-26T09:48:27.980Z,5.50
2017-11-26T09:50:56.347Z,5.40
2017-11-26T09:53:24.693Z,5.30
2017-11-26T09:55:53.026Z,5.30
2017-11-26T09:58:21.381Z,5.30
2017-11-26T10:00:49.771Z,5.30
2017-11-26T10:03:18.112Z,5.20
2017-11-26T10:05:47.234Z,5.20
2017-11-26T10:08:16.311Z,5.20
2017-11-26T10:10:44.665Z,5.20
2017-11-26T10:13:13.276Z,5.10
2017-11-26T10:15:41.692Z,5.20
2017-11-26T10:18:10.018Z,5.20
2017-11-26T10:20:38.446Z,5.20
2017-11-26T10:23:06.792Z,5.20
2017-11-26T10:25:35.894Z,5.20
2017-11-26T10:28:04.976Z,5.20
2017-11-26T10:30:34.113Z,5.20
2017-11-26T10:33:02.462Z,5.20
2017-11-26T10:35:31.582Z,5.30
2017-11-26T10:37:59.917Z,5.30
2017-11-26T10:40:28.278Z,5.40
2017-11-26T10:42:56.682Z,5.40
2017-11-26T10:45:24.992Z,5.40
2017-11-26T10:47:53.373Z,5.40
2017-11-26T10:50:21.704Z,5.40
2017-11-26T10:52:50.050Z,5.30
2017-11-26T10:55:18.481Z,5.30
2017-11-26T10:57:46.808Z,5.30
2017-11-26T11:00:15.145Z,5.30
2017-11-26T11:02:43.515Z,5.40
2017-11-26T11:05:12.182Z,5.30
2017-11-26T11:07:40.528Z,5.30
2017-11-26T11:10:08.887Z,5.30
2017-11-26T11:12:37.273Z,5.20
2017-11-26T11:15:05.633Z,5.20
2017-11-26T11:17:34.785Z,5.20
2017-11-26T11:20:03.138Z,5.10
2017-11-26T11:22:31.489Z,5.20
2017-11-26T11:25:00.016Z,5.20
2017-11-26T11:27:28.393Z,5.20
2017-11-26T11:29:56.713Z,5.20
2017-11-26T11:32:25.840Z,5.20
2017-11-26T11:34:54.198Z,5.20
2017-11-26T11:37:23.317Z,5.30
2017-11-26T11:39:51.746Z,5.30
2017-11-26T11:42:20.077Z,5.50
2017-11-26T11:44:48.426Z,5.40
2017-11-26T11:47:17.571Z,5.40
2017-11-26T11:49:45.953Z,5.40
2017-11-26T11:52:14.397Z,5.40
2017-11-26T11:54:42.749Z,5.40
2017-11-26T11:57:11.180Z,5.40
2017-11-26T11:59:39.536Z,5.40
2017-11-26T12:02:07.897Z,5.40
2017-11-26T12:04:37.044Z,5.40
2017-11-26T12:07:05.401Z,5.40
2017-11-26T12:09:33.778Z,5.40
2017-11-26T12:12:02.161Z,5.50
2017-11-26T12:14:30.505Z,5.50
2017-11-26T12:16:58.960Z,5.50
2017-11-26T12:19:27.529Z,5.60
2017-11-26T12:21:55.861Z,5.60
2017-11-26T12:24:25.022Z,5.60
2017-11-26T12:26:53.389Z,5.60
2017-11-26T12:29:21.757Z,5.70
2017-11-26T12:31:50.108Z,5.70
2017-11-26T12:34:19.206Z,5.60
2017-11-26T12:36:47.544Z,5.60
2017-11-26T12:39:15.959Z,5.60
2017-11-26T12:41:44.335Z,5.60
2017-11-26T12:44:14.340Z,5.60
2017-11-26T12:46:43.458Z,5.60
2017-11-26T12:49:11.899Z,5.60
2017-11-26T12:51:40.239Z,5.70
2017-11-26T12:54:08.818Z,5.60
2017-11-26T12:56:37.184Z,5.70
2017-11-26T12:59:05.544Z,5.60
2017-11-26T13:01:33.921Z,5.60
2017-11-26T13:04:03.106Z,5.70
2017-11-26T13:06:31.491Z,5.60
2017-11-26T13:09:00.750Z,5.80
2017-11-26T13:11:29.095Z,5.70
2017-11-26T13:13:57.459Z,5.80
2017-11-26T13:16:26.773Z,5.80
2017-11-26T13:18:55.109Z,5.70
2017-11-26T13:21:23.542Z,5.70
2017-11-26T13:23:52.220Z,5.70
2017-11-26T13:26:20.575Z,5.70
2017-11-26T13:28:49.696Z,5.70
2017-11-26T13:31:18.043Z,5.70
2017-11-26T13:33:46.426Z,5.70
2017-11-26T13:36:14.878Z,5.70
2017-11-26T13:38:43.245Z,5.60
2017-11-26T13:41:11.613Z,5.70
2017-11-26T13:43:39.977Z,5.60
2017-11-26T13:46:08.337Z,5.60
2017-11-26T13:48:36.748Z,5.70
2017-11-26T13:51:05.117Z,5.70
2017-11-26T13:53:34.514Z,5.80
2017-11-26T13:56:02.914Z,5.80
2017-11-26T13:58:31.261Z,5.70
2017-11-26T14:00:59.597Z,5.70
2017-11-26T14:03:27.976Z,5.70
2017-11-26T14:05:56.346Z,5.70
2017-11-26T14:08:25.000Z,5.70
2017-11-26T14:10:53.347Z,5.70
2017-11-26T14:13:22.477Z,5.70
2017-11-26T14:15:50.800Z,5.70
2017-11-26T14:18:19.147Z,5.70
2017-11-26T14:20:47.513Z,5.70
2017-11-26T14:23:15.841Z,5.70
2017-11-26T14:25:44.227Z,5.70
2017-11-26T14:28:12.663Z,5.70
2017-11-26T14:30:41.049Z,5.60
2017-11-26T14:33:09.385Z,5.60
2017-11-26T14:35:37.728Z,5.60
2017-11-26T14:38:06.067Z,5.60
2017-11-26T14:40:34.502Z,5.60
2017-11-26T14:43:03.259Z,5.60
2017-11-26T14:45:31.598Z,5.60
2017-11-26T14:47:59.965Z,5.60
2017-11-26T14:50:29.074Z,5.70
2017-11-26T14:52:57.432Z,5.70
2017-11-26T14:55:26.571Z,5.80
2017-11-26T14:57:54.957Z,5.80
2017-11-26T15:00:23.332Z,5.80
2017-11-26T15:02:51.733Z,5.70
2017-11-26T15:05:20.162Z,5.70
2017-11-26T15:07:49.303Z,5.70
2017-11-26T15:10:17.636Z,5.70
2017-11-26T15:12:46.809Z,5.70
2017-11-26T15:15:15.253Z,5.60
2017-11-26T15:17:43.700Z,5.60
2017-11-26T15:20:12.081Z,5.60
2017-11-26T15:22:41.241Z,5.60
2017-11-26T15:25:09.572Z,5.60
2017-11-26T15:27:37.993Z,5.60
2017-11-26T15:30:07.008Z,5.50
2017-11-26T15:32:35.380Z,5.50
2017-11-26T15:35:03.894Z,5.50
2017-11-26T15:37:32.268Z,5.50
2017-11-26T15:40:01.439Z,5.50
2017-11-26T15:42:29.805Z,5.50
2017-11-26T15:44:58.187Z,5.50
2017-11-26T15:47:26.545Z,5.50
2017-11-26T15:49:54.904Z,5.50
2017-11-26T15:52:23.297Z,5.40
2017-11-26T15:54:51.669Z,5.40
2017-11-26T15:57:20.035Z,5.40
2017-11-26T15:59:48.412Z,5.40
2017-11-26T16:02:17.027Z,5.40
2017-11-26T16:04:45.445Z,5.40
2017-11-26T16:07:13.846Z,5.40
2017-11-26T16:09:42.202Z,5.40
2017-11-26T16:12:10.589Z,5.40
2017-11-26T16:14:39.055Z,5.40
2017-11-26T16:17:07.500Z,5.50
2017-11-26T16:19:35.839Z,5.50
2017-11-26T16:22:04.207Z,5.50
2017-11-26T16:24:32.568Z,5.50
2017-11-26T16:27:00.909Z,5.50
2017-11-26T16:29:29.328Z,5.60
2017-11-26T16:31:57.740Z,5.50
2017-11-26T16:34:27.011Z,5.50
2017-11-26T16:36:56.309Z,5.50
2017-11-26T16:39:24.711Z,5.50
2017-11-26T16:41:53.835Z,5.60
2017-11-26T16:44:22.385Z,5.60
2017-11-26T16:46:51.530Z,5.60
2017-11-26T16:49:20.542Z,5.60
2017-11-26T16:51:49.704Z,5.60
2017-11-26T16:54:18.228Z,5.60
2017-11-26T16:56:46.587Z,5.60
2017-11-26T16:59:15.082Z,5.60
2017-11-26T17:01:43.605Z,5.50
2017-11-26T17:04:12.933Z,5.50
2017-11-26T17:06:41.319Z,5.50
2017-11-26T17:09:09.681Z,5.50
2017-11-26T17:11:38.048Z,5.40
2017-11-26T17:14:07.817Z,5.50
2017-11-26T17:16:36.189Z,5.40
2017-11-26T17:19:04.581Z,5.40
2017-11-26T17:21:32.963Z,5.50
2017-11-26T17:24:01.527Z,5.50
2017-11-26T17:26:29.960Z,5.40
2017-11-26T17:28:58.367Z,5.40
2017-11-26T17:31:26.697Z,5.40
2017-11-26T17:33:55.098Z,5.40
2017-11-26T17:36:24.223Z,5.40
2017-11-26T17:38:52.665Z,5.40
2017-11-26T17:41:21.175Z,5.40
2017-11-26T17:43:49.648Z,5.40
2017-11-26T17:46:18.905Z,5.30
2017-11-26T17:48:47.464Z,5.30
2017-11-26T17:51:15.865Z,5.30
2017-11-26T17:53:44.182Z,5.20
2017-11-26T17:56:13.300Z,5.30
2017-11-26T17:58:41.650Z,5.20
2017-11-26T18:01:10.851Z,5.20
2017-11-26T18:03:39.970Z,5.20
2017-11-26T18:06:08.380Z,5.20
2017-11-26T18:08:36.731Z,5.20
2017-11-26T18:11:05.286Z,5.30
2017-11-26T18:13:33.633Z,5.30
2017-11-26T18:16:01.960Z,5.30
2017-11-26T18:18:30.321Z,5.30
2017-11-26T18:20:59.454Z,5.30
2017-11-26T18:23:27.805Z,5.30
2017-11-26T18:25:56.990Z,5.30
2017-11-26T18:28:25.440Z,5.30
2017-11-26T18:30:53.770Z,5.30
2017-11-26T18:33:22.876Z,5.30
2017-11-26T18:35:51.304Z,5.30
2017-11-26T18:38:19.902Z,5.30
2017-11-26T18:40:48.227Z,5.30
2017-11-26T18:43:16.673Z,5.30
2017-11-26T18:45:45.037Z,5.30
2017-11-26T18:48:13.433Z,5.30
2017-11-26T18:50:41.786Z,5.30
2017-11-26T18:53:10.376Z,5.30
2017-11-26T18:55:38.767Z,5.40
2017-11-26T18:58:07.121Z,5.30
2017-11-26T19:00:35.467Z,5.30
2017-11-26T19:03:03.819Z,5.30
2017-11-26T19:05:32.916Z,5.30
2017-11-26T19:08:02.058Z,5.30
2017-11-26T19:10:30.447Z,5.30
2017-11-26T19:12:58.780Z,5.30
2017-11-26T19:15:27.173Z,5.30
2017-11-26T19:17:55.540Z,5.40
2017-11-26T19:20:24.038Z,5.40
2017-11-26T19:22:52.380Z,5.40
2017-11-26T19:25:21.489Z,5.40
2017-11-26T19:27:51.345Z,5.30
2017-11-26T19:30:19.693Z,5.30
2017-11-26T19:32:48.071Z,5.40
2017-11-26T19:35:16.426Z,5.40
2017-11-26T19:37:44.881Z,5.40
2017-11-26T19:40:13.249Z,5.40
2017-11-26T19:42:41.579Z,5.30
2017-11-26T19:45:09.929Z,5.30
2017-11-26T19:47:38.294Z,5.30
2017-11-26T19:50:06.662Z,5.30
2017-11-26T19:52:35.239Z,5.20
2017-11-26T19:55:04.024Z,5.20
2017-11-26T19:57:32.385Z,5.30
2017-11-26T20:00:00.760Z,5.30
2017-11-26T20:02:29.085Z,5.30
2017-11-26T20:04:57.456Z,5.20
2017-11-26T20:07:25.777Z,5.20
2017-11-26T20:09:55.011Z,5.20
2017-11-26T20:12:23.409Z,5.20
2017-11-26T20:14:51.871Z,5.30
2017-11-26T20:17:20.353Z,5.20
2017-11-26T20:19:48.681Z,5.20
2017-11-26T20:22:17.026Z,5.20
2017-11-26T20:24:45.352Z,5.20
2017-11-26T20:27:14.478Z,5.20
2017-11-26T20:29:42.824Z,5.20
2017-11-26T20:32:12.130Z,5.10
2017-11-26T20:34:41.252Z,5.10
2017-11-26T20:37:09.590Z,5.10
2017-11-26T20:39:37.931Z,5.10
2017-11-26T20:42:06.289Z,5.10
2017-11-26T20:44:34.632Z,5.10
2017-11-26T20:47:03.761Z,5.10
2017-11-26T20:49:32.128Z,5.10
2017-11-26T20:52:00.489Z,5.10
2017-11-26T20:54:29.653Z,5.10
2017-11-26T20:56:58.045Z,5.10
2017-11-26T20:59:26.593Z,5.20
2017-11-26T21:01:55.014Z,5.10
2017-11-26T21:04:23.360Z,5.10
2017-11-26T21:06:51.700Z,5.10
2017-11-26T21:09:20.084Z,5.10
2017-11-26T21:11:48.438Z,5.10
2017-11-26T21:14:17.648Z,5.10
2017-11-26T21:16:46.087Z,5.10
2017-11-26T21:19:15.322Z,5.10
2017-11-26T21:21:44.445Z,5.10
2017-11-26T21:24:12.844Z,5.10
2017-11-26T21:26:41.197Z,5.10
2017-11-26T21:29:09.624Z,5.10
2017-11-26T21:31:38.023Z,5.10
2017-11-26T21:34:06.632Z,5.00
2017-11-26T21:36:35.053Z,5.00
2017-11-26T21:39:04.460Z,5.00
2017-11-26T21:41:32.934Z,5.00
2017-11-26T21:44:01.301Z,5.00
2017-11-26T21:46:29.657Z,5.00
2017-11-26T21:48:57.988Z,5.00
2017-11-26T21:51:26.563Z,5.00
2017-11-26T21:53:54.890Z,5.00
2017-11-26T21:56:23.289Z,5.00
2017-11-26T21:58:51.644Z,5.00
2017-11-26T22:01:19.998Z,4.90
2017-11-26T22:03:48.389Z,4.80
2017-11-26T22:06:16.889Z,4.90
2017-11-26T22:08:46.037Z,4.80
2017-11-26T22:11:14.373Z,4.80
2017-11-26T22:13:42.722Z,4.80
2017-11-26T22:16:11.081Z,4.80
2017-11-26T22:18:39.418Z,4.70
2017-11-26T22:21:07.764Z,4.70
2017-11-26T22:23:36.884Z,4.70
2017-11-26T22:26:06.011Z,4.80
2017-11-26T22:28:34.354Z,4.70
2017-11-26T22:31:03.465Z,4.70
2017-11-26T22:33:31.845Z,4.70
2017-11-26T22:36:00.314Z,4.80
2017-11-26T22:38:29.427Z,4.80
2017-11-26T22:40:58.414Z,4.70
2017-11-26T22:43:27.523Z,4.80
2017-11-26T22:45:55.865Z,4.80
2017-11-26T22:48:25.000Z,4.80
2017-11-26T22:50:53.350Z,4.80
2017-11-26T22:53:22.464Z,4.90
2017-11-26T22:55:50.825Z,4.90
2017-11-26T22:58:19.937Z,4.90
2017-11-26T23:00:48.310Z,4.90
2017-11-26T23:03:17.417Z,4.90
2017-11-26T23:05:45.781Z,4.80
2017-11-26T23:08:14.123Z,4.80
2017-11-26T23:10:42.942Z,4.80
2017-11-26T23:13:11.303Z,4.80
2017-11-26T23:15:39.652Z,4.80
2017-11-26T23:18:08.015Z,4.70
2017-11-26T23:20:36.364Z,4.80
2017-11-26T23:23:05.463Z,4.70
2017-11-26T23:25:33.821Z,4.70
2017-11-26T23:28:02.937Z,4.70
2017-11-26T23:30:32.064Z,4.80
2017-11-26T23:33:00.428Z,4.70
2017-11-26T23:35:28.756Z,4.80
2017-11-26T23:37:57.108Z,4.70
2017-11-26T23:40:25.444Z,4.70
2017-11-26T23:42:54.676Z,4.70
2017-11-26T23:45:23.021Z,4.70
2017-11-26T23:47:52.265Z,4.70
2017-11-26T23:50:20.626Z,4.60
2017-11-26T23:52:49.060Z,4.60
2017-11-26T23:55:17.606Z,4.60
2017-11-26T23:57:45.965Z,4.60
